Time,TemperatureF,DewpointF,PressureIn,WindDirection,WindDirectionDegrees,WindSpeedMPH,WindSpeedGustMPH,Humidity,HourlyPrecipIn,Conditions,Clouds,dailyrainin,SoftwareType,DateUTC
2013-09-20 00:06:00,59.8,55.0,29.84,WNW,288,3.0,6.0,84,0.00,,,0.00,weatherlink.com 1.10,2013-09-20 05:06:00,
2013-09-20 00:21:00,59.9,54.0,29.85,WNW,298,3.0,6.0,82,0.00,,,0.00,weatherlink.com 1.10,2013-09-20 05:21:00,
2013-09-20 00:36:00,59.3,55.0,29.86,WNW,302,3.0,5.0,84,0.00,,,0.00,weatherlink.com 1.10,2013-09-20 05:36:00,
2013-09-20 00:51:00,59.1,54.0,29.86,NNE,14,5.0,6.0,84,0.00,,,0.00,weatherlink.com 1.10,2013-09-20 05:51:00,
2013-09-20 01:06:00,59.2,54.0,29.86,WNW,300,3.0,7.0,84,0.00,,,0.00,weatherlink.com 1.10,2013-09-20 06:06:00,
2013-09-20 01:21:00,58.8,54.0,29.87,WNW,300,3.0,6.0,85,0.00,,,0.00,weatherlink.com 1.10,2013-09-20 06:21:00,
2013-09-20 01:36:00,58.7,55.0,29.86,NW,305,3.0,5.0,86,0.00,,,0.00,weatherlink.com 1.10,2013-09-20 06:36:00,
2013-09-20 01:51:00,58.5,54.0,29.88,NW,305,2.0,4.0,86,0.00,,,0.00,weatherlink.com 1.10,2013-09-20 06:51:00,
2013-09-20 02:06:00,57.9,54.0,29.87,WNW,303,3.0,4.0,87,0.00,,,0.00,weatherlink.com 1.10,2013-09-20 07:06:00,
2013-09-20 02:21:00,57.7,54.0,29.88,NW,307,4.0,5.0,87,0.00,,,0.00,weatherlink.com 1.10,2013-09-20 07:21:00,
2013-09-20 02:36:00,57.5,54.0,29.88,WNW,284,2.0,5.0,87,0.00,,,0.00,weatherlink.com 1.10,2013-09-20 07:36:00,
2013-09-20 02:51:00,57.4,54.0,29.89,West,276,4.0,5.0,88,0.00,,,0.00,weatherlink.com 1.10,2013-09-20 07:51:00,
2013-09-20 03:06:00,56.9,53.0,29.88,NW,305,3.0,6.0,88,0.00,,,0.00,weatherlink.com 1.10,2013-09-20 08:06:00,
2013-09-20 03:21:00,56.7,53.0,29.89,WNW,288,3.0,6.0,88,0.00,,,0.00,weatherlink.com 1.10,2013-09-20 08:21:00,
2013-09-20 03:36:00,56.2,53.0,29.89,NW,312,3.0,5.0,88,0.00,,,0.00,weatherlink.com 1.10,2013-09-20 08:36:00,
2013-09-20 03:51:00,55.7,53.0,29.89,WNW,300,1.0,5.0,89,0.00,,,0.00,weatherlink.com 1.10,2013-09-20 08:51:00,
2013-09-20 04:06:00,55.1,52.0,29.89,West,271,1.0,4.0,90,0.00,,,0.00,weatherlink.com 1.10,2013-09-20 09:06:00,
2013-09-20 04:21:00,54.7,52.0,29.89,WNW,300,4.0,5.0,90,0.00,,,0.00,weatherlink.com 1.10,2013-09-20 09:21:00,
2013-09-20 04:36:00,54.3,52.0,29.89,WNW,290,3.0,5.0,90,0.00,,,0.00,weatherlink.com 1.10,2013-09-20 09:36:00,
2013-09-20 04:51:00,53.5,51.0,29.89,WNW,290,3.0,6.0,91,0.00,,,0.00,weatherlink.com 1.10,2013-09-20 09:51:00,
2013-09-20 05:06:00,52.9,51.0,29.89,NW,310,3.0,5.0,92,0.00,,,0.00,weatherlink.com 1.10,2013-09-20 10:06:00,
2013-09-20 05:21:00,52.6,50.0,29.89,WNW,290,4.0,7.0,92,0.00,,,0.00,weatherlink.com 1.10,2013-09-20 10:21:00,
2013-09-20 05:36:00,52.0,50.0,29.89,WNW,289,4.0,5.0,92,0.00,,,0.00,weatherlink.com 1.10,2013-09-20 10:36:00,
2013-09-20 05:51:00,51.4,50.0,29.89,West,271,6.0,6.0,93,0.00,,,0.00,weatherlink.com 1.10,2013-09-20 10:51:00,
2013-09-20 06:06:00,50.9,49.0,29.89,WNW,296,3.0,7.0,93,0.00,,,0.00,weatherlink.com 1.10,2013-09-20 11:06:00,
2013-09-20 06:21:00,50.5,49.0,29.90,SW,236,5.0,7.0,93,0.00,,,0.00,weatherlink.com 1.10,2013-09-20 11:21:00,
2013-09-20 06:37:00,50.1,48.0,29.91,WNW,297,3.0,6.0,93,0.00,,,0.00,weatherlink.com 1.10,2013-09-20 11:37:00,
2013-09-20 06:52:00,49.6,48.0,29.91,WNW,285,2.0,6.0,93,0.00,,,0.00,weatherlink.com 1.10,2013-09-20 11:52:00,
2013-09-20 07:07:00,49.2,48.0,29.92,West,267,2.0,6.0,94,0.00,,,0.00,weatherlink.com 1.10,2013-09-20 12:07:00,
2013-09-20 07:22:00,49.4,48.0,29.92,WNW,295,2.0,6.0,93,0.00,,,0.00,weatherlink.com 1.10,2013-09-20 12:22:00,
2013-09-20 07:37:00,49.0,47.0,29.93,West,268,2.0,5.0,94,0.00,,,0.00,weatherlink.com 1.10,2013-09-20 12:37:00,
2013-09-20 07:52:00,49.2,48.0,29.93,WNW,283,2.0,7.0,94,0.00,,,0.00,weatherlink.com 1.10,2013-09-20 12:52:00,
2013-09-20 08:07:00,49.9,48.0,29.93,West,279,2.0,7.0,94,0.00,,,0.00,weatherlink.com 1.10,2013-09-20 13:07:00,
2013-09-20 08:22:00,50.5,49.0,29.93,West,276,5.0,8.0,93,0.00,,,0.00,weatherlink.com 1.10,2013-09-20 13:22:00,
2013-09-20 08:37:00,51.0,49.0,29.93,WNW,285,4.0,7.0,92,0.00,,,0.00,weatherlink.com 1.10,2013-09-20 13:37:00,
2013-09-20 08:52:00,51.5,49.0,29.93,WNW,283,3.0,8.0,91,0.00,,,0.00,weatherlink.com 1.10,2013-09-20 13:52:00,
2013-09-20 09:07:00,52.4,50.0,29.93,WNW,287,5.0,8.0,90,0.00,,,0.00,weatherlink.com 1.10,2013-09-20 14:07:00,
2013-09-20 09:22:00,53.5,50.0,29.94,West,266,2.0,6.0,88,0.00,,,0.00,weatherlink.com 1.10,2013-09-20 14:22:00,
2013-09-20 09:37:00,54.1,50.0,29.94,WNW,290,3.0,11.0,87,0.00,,,0.00,weatherlink.com 1.10,2013-09-20 14:37:00,
2013-09-20 09:52:00,54.2,51.0,29.95,WNW,294,5.0,10.0,87,0.00,,,0.00,weatherlink.com 1.10,2013-09-20 14:52:00,
2013-09-20 10:07:00,54.6,51.0,29.95,NW,309,5.0,8.0,87,0.00,,,0.00,weatherlink.com 1.10,2013-09-20 15:07:00,
2013-09-20 10:22:00,55.2,51.0,29.95,WNW,301,4.0,11.0,86,0.00,,,0.00,weatherlink.com 1.10,2013-09-20 15:22:00,
2013-09-20 10:37:00,55.5,52.0,29.96,NW,321,5.0,8.0,87,0.00,,,0.00,weatherlink.com 1.10,2013-09-20 15:37:00,
2013-09-20 10:52:00,55.8,52.0,29.96,WNW,300,8.0,9.0,87,0.00,,,0.00,weatherlink.com 1.10,2013-09-20 15:52:00,
2013-09-20 11:07:00,56.7,53.0,29.96,WNW,297,5.0,9.0,86,0.00,,,0.00,weatherlink.com 1.10,2013-09-20 16:07:00,
2013-09-20 11:22:00,57.1,52.0,29.96,WNW,297,9.0,12.0,84,0.00,,,0.00,weatherlink.com 1.10,2013-09-20 16:22:00,
2013-09-20 11:37:00,56.9,53.0,29.96,NW,306,3.0,6.0,85,0.00,,,0.00,weatherlink.com 1.10,2013-09-20 16:37:00,
2013-09-20 11:52:00,57.5,52.0,29.95,NW,319,6.0,14.0,83,0.00,,,0.00,weatherlink.com 1.10,2013-09-20 16:52:00,
2013-09-20 12:07:00,58.5,53.0,29.95,WNW,300,5.0,13.0,82,0.00,,,0.00,weatherlink.com 1.10,2013-09-20 17:07:00,
2013-09-20 12:22:00,57.9,53.0,29.95,WNW,295,6.0,11.0,83,0.00,,,0.00,weatherlink.com 1.10,2013-09-20 17:22:00,
2013-09-20 12:37:00,59.4,54.0,29.94,WNW,301,6.0,14.0,81,0.00,,,0.00,weatherlink.com 1.10,2013-09-20 17:37:00,
2013-09-20 12:52:00,60.5,53.0,29.94,West,277,5.0,17.0,76,0.00,,,0.00,weatherlink.com 1.10,2013-09-20 17:52:00,
2013-09-20 13:07:00,61.0,53.0,29.94,WNW,298,7.0,15.0,74,0.00,,,0.00,weatherlink.com 1.10,2013-09-20 18:07:00,
2013-09-20 13:22:00,61.6,52.0,29.94,WNW,300,6.0,14.0,72,0.00,,,0.00,weatherlink.com 1.10,2013-09-20 18:22:00,
2013-09-20 13:37:00,61.2,53.0,29.94,WNW,283,6.0,9.0,74,0.00,,,0.00,weatherlink.com 1.10,2013-09-20 18:37:00,
2013-09-20 13:52:00,61.0,53.0,29.93,NW,320,4.0,10.0,74,0.00,,,0.00,weatherlink.com 1.10,2013-09-20 18:52:00,
2013-09-20 14:07:00,60.8,51.0,29.93,WNW,288,7.0,12.0,71,0.00,,,0.00,weatherlink.com 1.10,2013-09-20 19:07:00,
2013-09-20 14:22:00,60.7,52.0,29.93,NW,317,12.0,15.0,72,0.00,,,0.00,weatherlink.com 1.10,2013-09-20 19:22:00,
2013-09-20 14:37:00,60.9,52.0,29.93,WNW,294,5.0,11.0,72,0.00,,,0.00,weatherlink.com 1.10,2013-09-20 19:37:00,
2013-09-20 14:52:00,60.4,52.0,29.93,NW,309,4.0,11.0,73,0.00,,,0.00,weatherlink.com 1.10,2013-09-20 19:52:00,
2013-09-20 15:07:00,60.1,51.0,29.94,NW,309,7.0,13.0,73,0.00,,,0.00,weatherlink.com 1.10,2013-09-20 20:07:00,
2013-09-20 15:22:00,60.4,51.0,29.94,WNW,297,4.0,12.0,71,0.00,,,0.00,weatherlink.com 1.10,2013-09-20 20:22:00,
2013-09-20 15:37:00,60.1,51.0,29.94,WNW,299,6.0,11.0,71,0.00,,,0.00,weatherlink.com 1.10,2013-09-20 20:37:00,
2013-09-20 15:52:00,60.0,51.0,29.94,NW,307,6.0,10.0,72,0.00,,,0.00,weatherlink.com 1.10,2013-09-20 20:52:00,
2013-09-20 16:07:00,60.0,52.0,29.94,NW,304,9.0,13.0,74,0.00,,,0.00,weatherlink.com 1.10,2013-09-20 21:07:00,
2013-09-20 16:22:00,59.5,51.0,29.94,NW,314,8.0,10.0,73,0.00,,,0.00,weatherlink.com 1.10,2013-09-20 21:22:00,
2013-09-20 16:37:00,59.1,51.0,29.94,WNW,293,4.0,10.0,74,0.00,,,0.00,weatherlink.com 1.10,2013-09-20 21:37:00,
2013-09-20 16:52:00,59.2,51.0,29.94,NW,311,3.0,7.0,75,0.00,,,0.00,weatherlink.com 1.10,2013-09-20 21:52:00,
2013-09-20 17:07:00,59.2,51.0,29.94,NW,307,3.0,7.0,73,0.00,,,0.00,weatherlink.com 1.10,2013-09-20 22:07:00,
2013-09-20 17:22:00,59.6,51.0,29.94,NW,307,2.0,3.0,73,0.00,,,0.00,weatherlink.com 1.10,2013-09-20 22:22:00,
2013-09-20 17:37:00,60.0,51.0,29.94,NE,35,1.0,6.0,73,0.00,,,0.00,weatherlink.com 1.10,2013-09-20 22:37:00,
2013-09-20 17:52:00,59.8,51.0,29.93,NW,306,4.0,7.0,72,0.00,,,0.00,weatherlink.com 1.10,2013-09-20 22:52:00,
2013-09-20 18:07:00,59.4,50.0,29.94,WNW,302,3.0,7.0,72,0.00,,,0.00,weatherlink.com 1.10,2013-09-20 23:07:00,
2013-09-20 18:22:00,59.6,50.0,29.94,NW,315,6.0,10.0,70,0.00,,,0.00,weatherlink.com 1.10,2013-09-20 23:22:00,
2013-09-20 18:37:00,59.3,48.0,29.95,WNW,296,7.0,14.0,67,0.00,,,0.00,weatherlink.com 1.10,2013-09-20 23:37:00,
2013-09-20 18:52:00,57.2,48.0,29.95,WNW,301,5.0,9.0,71,0.00,,,0.00,weatherlink.com 1.10,2013-09-20 23:52:00,
2013-09-20 19:07:00,55.4,48.0,29.95,NW,305,3.0,8.0,75,0.00,,,0.00,weatherlink.com 1.10,2013-09-21 00:07:00,
2013-09-20 19:22:00,53.9,47.0,29.95,WNW,302,3.0,5.0,78,0.00,,,0.00,weatherlink.com 1.10,2013-09-21 00:22:00,
2013-09-20 19:37:00,52.9,46.0,29.96,NW,310,3.0,5.0,77,0.00,,,0.00,weatherlink.com 1.10,2013-09-21 00:37:00,
2013-09-20 19:53:00,51.8,46.0,29.96,NW,304,3.0,5.0,79,0.00,,,0.00,weatherlink.com 1.10,2013-09-21 00:53:00,
2013-09-20 20:08:00,50.9,45.0,29.97,WNW,294,3.0,4.0,80,0.00,,,0.00,weatherlink.com 1.10,2013-09-21 01:08:00,
2013-09-20 20:23:00,50.0,44.0,29.97,WNW,302,2.0,4.0,81,0.00,,,0.00,weatherlink.com 1.10,2013-09-21 01:23:00,
2013-09-20 20:38:00,49.0,44.0,29.97,NW,311,2.0,3.0,84,0.00,,,0.00,weatherlink.com 1.10,2013-09-21 01:38:00,
2013-09-20 20:53:00,48.2,44.0,29.97,WNW,297,3.0,4.0,86,0.00,,,0.00,weatherlink.com 1.10,2013-09-21 01:53:00,
2013-09-20 21:08:00,48.0,44.0,29.98,NW,313,3.0,5.0,87,0.00,,,0.00,weatherlink.com 1.10,2013-09-21 02:08:00,
2013-09-20 21:23:00,47.8,44.0,29.98,WNW,295,2.0,3.0,87,0.00,,,0.00,weatherlink.com 1.10,2013-09-21 02:23:00,
2013-09-20 21:38:00,47.1,44.0,29.99,WNW,299,2.0,3.0,88,0.00,,,0.00,weatherlink.com 1.10,2013-09-21 02:38:00,
2013-09-20 21:53:00,46.6,43.0,29.99,WNW,301,2.0,3.0,88,0.00,,,0.00,weatherlink.com 1.10,2013-09-21 02:53:00,
2013-09-20 22:08:00,46.0,43.0,29.99,WNW,297,2.0,3.0,90,0.00,,,0.00,weatherlink.com 1.10,2013-09-21 03:08:00,
2013-09-20 22:23:00,45.4,43.0,29.99,WNW,297,2.0,3.0,91,0.00,,,0.00,weatherlink.com 1.10,2013-09-21 03:23:00,
2013-09-20 22:38:00,45.3,43.0,30.00,WNW,291,1.0,3.0,90,0.00,,,0.00,weatherlink.com 1.10,2013-09-21 03:38:00,
2013-09-20 22:53:00,45.2,43.0,29.99,WNW,300,3.0,3.0,90,0.00,,,0.00,weatherlink.com 1.10,2013-09-21 03:53:00,
2013-09-20 23:08:00,45.1,42.0,29.99,WNW,297,3.0,3.0,90,0.00,,,0.00,weatherlink.com 1.10,2013-09-21 04:08:00,
2013-09-20 23:23:00,44.8,42.0,29.99,WNW,297,2.0,3.0,90,0.00,,,0.00,weatherlink.com 1.10,2013-09-21 04:23:00,
2013-09-20 23:38:00,44.5,42.0,29.99,WNW,299,2.0,2.0,91,0.00,,,0.00,weatherlink.com 1.10,2013-09-21 04:38:00,
2013-09-20 23:53:00,44.4,42.0,29.99,WNW,300,2.0,3.0,91,0.00,,,0.00,weatherlink.com 1.10,2013-09-21 04:53:00,